sensor_id;sensor_type;location;lat;lon;timestamp;pressure;altitude;pressure_sealevel;temperature;humidity
69737;BME280;64476;55.004;73.342;2022-12-20T00:03:48;100393.34;;;1.47;58.89
69737;BME280;64476;55.004;73.342;2022-12-20T00:06:50;100387.22;;;1.49;58.95
69737;BME280;64476;55.004;73.342;2022-12-20T00:09:52;100386.88;;;1.39;59.53
69737;BME280;64476;55.004;73.342;2022-12-20T00:12:59;100381.50;;;1.44;59.25
69737;BME280;64476;55.004;73.342;2022-12-20T00:19:25;100394.31;;;1.28;60.33
69737;BME280;64476;55.004;73.342;2022-12-20T00:22:27;100379.44;;;1.17;61.19
69737;BME280;64476;55.004;73.342;2022-12-20T00:25:33;100384.66;;;1.16;60.70
69737;BME280;64476;55.004;73.342;2022-12-20T00:28:41;100373.06;;;1.25;60.93
69737;BME280;64476;55.004;73.342;2022-12-20T00:31:52;100371.00;;;1.31;60.93
69737;BME280;64476;55.004;73.342;2022-12-20T00:34:53;100369.09;;;1.35;60.80
69737;BME280;64476;55.004;73.342;2022-12-20T00:37:55;100365.31;;;1.42;60.71
69737;BME280;64476;55.004;73.342;2022-12-20T00:41:08;100364.06;;;1.33;61.43
69737;BME280;64476;55.004;73.342;2022-12-20T00:44:10;100367.50;;;1.16;61.87
69737;BME280;64476;55.004;73.342;2022-12-20T00:47:12;100362.66;;;1.10;62.16
69737;BME280;64476;55.004;73.342;2022-12-20T00:50:13;100369.38;;;1.13;61.87
69737;BME280;64476;55.004;73.342;2022-12-20T00:53:14;100366.28;;;1.06;62.97
69737;BME280;64476;55.004;73.342;2022-12-20T00:56:16;100371.81;;;0.99;63.70
69737;BME280;64476;55.004;73.342;2022-12-20T00:59:54;100376.81;;;0.84;64.14
69737;BME280;64476;55.004;73.342;2022-12-20T01:03:00;100360.19;;;0.91;63.49
69737;BME280;64476;55.004;73.342;2022-12-20T01:06:05;100361.94;;;0.73;64.35
69737;BME280;64476;55.004;73.342;2022-12-20T01:09:11;100360.34;;;0.88;63.18
69737;BME280;64476;55.004;73.342;2022-12-20T01:12:13;100360.19;;;0.91;63.09
69737;BME280;64476;55.004;73.342;2022-12-20T01:15:14;100337.50;;;1.00;62.72
69737;BME280;64476;55.004;73.342;2022-12-20T01:18:17;100340.81;;;1.02;63.54
69737;BME280;64476;55.004;73.342;2022-12-20T01:21:20;100344.75;;;1.09;63.14
69737;BME280;64476;55.004;73.342;2022-12-20T01:24:21;100335.53;;;1.05;63.43
69737;BME280;64476;55.004;73.342;2022-12-20T01:27:23;100337.50;;;1.00;63.49
69737;BME280;64476;55.004;73.342;2022-12-20T01:30:30;100332.38;;;1.00;63.21
69737;BME280;64476;55.004;73.342;2022-12-20T01:33:36;100323.50;;;1.05;62.77
69737;BME280;64476;55.004;73.342;2022-12-20T01:36:47;100323.72;;;1.18;62.64
69737;BME280;64476;55.004;73.342;2022-12-20T01:39:49;100309.84;;;1.20;62.40
69737;BME280;64476;55.004;73.342;2022-12-20T01:42:51;100319.78;;;1.11;63.06
69737;BME280;64476;55.004;73.342;2022-12-20T01:45:55;100323.34;;;1.08;63.57
69737;BME280;64476;55.004;73.342;2022-12-20T01:49:10;100318.03;;;1.11;63.01
69737;BME280;64476;55.004;73.342;2022-12-20T01:52:21;100309.56;;;1.09;64.04
69737;BME280;64476;55.004;73.342;2022-12-20T01:55:26;100311.41;;;1.07;64.04
69737;BME280;64476;55.004;73.342;2022-12-20T01:58:28;100305.84;;;1.15;63.85
69737;BME280;64476;55.004;73.342;2022-12-20T02:01:30;100297.31;;;1.14;63.79
69737;BME280;64476;55.004;73.342;2022-12-20T02:04:32;100293.88;;;1.14;63.72
69737;BME280;64476;55.004;73.342;2022-12-20T02:07:36;100295.41;;;1.18;63.57
69737;BME280;64476;55.004;73.342;2022-12-20T02:24:17;100277.69;;;1.29;63.00
69737;BME280;64476;55.004;73.342;2022-12-20T02:27:29;100280.16;;;1.31;62.65
69737;BME280;64476;55.004;73.342;2022-12-20T02:30:34;100294.81;;;1.29;62.66
69737;BME280;64476;55.004;73.342;2022-12-20T02:34:25;100293.59;;;1.36;61.89
69737;BME280;64476;55.004;73.342;2022-12-20T02:37:34;100290.53;;;1.29;61.61
69737;BME280;64476;55.004;73.342;2022-12-20T02:40:38;100290.34;;;1.32;62.06
69737;BME280;64476;55.004;73.342;2022-12-20T02:44:13;100292.50;;;1.40;61.07
69737;BME280;64476;55.004;73.342;2022-12-20T02:47:37;100282.22;;;1.40;61.02
69737;BME280;64476;55.004;73.342;2022-12-20T02:50:50;100290.53;;;1.45;61.71
69737;BME280;64476;55.004;73.342;2022-12-20T02:53:54;100293.25;;;1.89;59.71
69737;BME280;64476;55.004;73.342;2022-12-20T02:57:22;100289.97;;;2.02;59.31
69737;BME280;64476;55.004;73.342;2022-12-20T03:00:26;100288.47;;;2.13;58.58
69737;BME280;64476;55.004;73.342;2022-12-20T03:03:32;100287.84;;;2.24;58.83
69737;BME280;64476;55.004;73.342;2022-12-20T03:09:47;100292.06;;;2.41;57.64
69737;BME280;64476;55.004;73.342;2022-12-20T03:12:49;100292.44;;;2.49;57.65
69737;BME280;64476;55.004;73.342;2022-12-20T03:15:52;100307.81;;;2.51;57.18
69737;BME280;64476;55.004;73.342;2022-12-20T03:22:36;100307.06;;;2.49;56.88
69737;BME280;64476;55.004;73.342;2022-12-20T03:25:44;100308.06;;;2.16;55.69
69737;BME280;64476;55.004;73.342;2022-12-20T03:28:52;100308.53;;;1.92;56.64
69737;BME280;64476;55.004;73.342;2022-12-20T03:31:56;100309.16;;;1.66;56.33
69737;BME280;64476;55.004;73.342;2022-12-20T03:34:57;100315.44;;;1.60;56.62
69737;BME280;64476;55.004;73.342;2022-12-20T03:38:05;100316.59;;;1.39;57.13
69737;BME280;64476;55.004;73.342;2022-12-20T03:41:07;100310.72;;;1.37;58.15
69737;BME280;64476;55.004;73.342;2022-12-20T03:44:08;100316.41;;;1.26;57.54
69737;BME280;64476;55.004;73.342;2022-12-20T03:47:18;100321.44;;;1.12;58.81
69737;BME280;64476;55.004;73.342;2022-12-20T03:50:20;100320.00;;;1.06;58.84
69737;BME280;64476;55.004;73.342;2022-12-20T03:53:33;100316.84;;;1.01;58.92
69737;BME280;64476;55.004;73.342;2022-12-20T03:56:40;100321.78;;;0.88;59.33
69737;BME280;64476;55.004;73.342;2022-12-20T03:59:41;100325.88;;;0.92;59.15
69737;BME280;64476;55.004;73.342;2022-12-20T04:03:26;100323.38;;;0.91;58.56
69737;BME280;64476;55.004;73.342;2022-12-20T04:06:30;100326.28;;;0.67;58.16
69737;BME280;64476;55.004;73.342;2022-12-20T04:09:32;100333.91;;;0.69;57.78
69737;BME280;64476;55.004;73.342;2022-12-20T04:12:41;100324.44;;;0.69;57.87
69737;BME280;64476;55.004;73.342;2022-12-20T04:15:45;100327.03;;;0.69;57.78
69737;BME280;64476;55.004;73.342;2022-12-20T04:18:47;100318.56;;;0.67;58.25
69737;BME280;64476;55.004;73.342;2022-12-20T04:21:49;100337.63;;;0.63;57.57
69737;BME280;64476;55.004;73.342;2022-12-20T04:25:26;100333.75;;;0.55;56.94
69737;BME280;64476;55.004;73.342;2022-12-20T04:32:06;100337.53;;;0.47;57.37
69737;BME280;64476;55.004;73.342;2022-12-20T04:35:08;100326.66;;;0.42;57.43
69737;BME280;64476;55.004;73.342;2022-12-20T04:38:21;100330.66;;;0.31;57.36
69737;BME280;64476;55.004;73.342;2022-12-20T04:41:25;100336.47;;;0.34;57.99
69737;BME280;64476;55.004;73.342;2022-12-20T04:44:34;100323.94;;;0.28;57.01
69737;BME280;64476;55.004;73.342;2022-12-20T04:47:46;100327.19;;;0.32;56.87
69737;BME280;64476;55.004;73.342;2022-12-20T04:50:52;100323.09;;;0.28;57.29
69737;BME280;64476;55.004;73.342;2022-12-20T04:54:03;100310.25;;;0.28;56.65
69737;BME280;64476;55.004;73.342;2022-12-20T04:57:43;100307.09;;;0.22;56.99
69737;BME280;64476;55.004;73.342;2022-12-20T05:00:51;100322.97;;;0.31;56.91
69737;BME280;64476;55.004;73.342;2022-12-20T05:03:58;100322.00;;;0.33;57.40
69737;BME280;64476;55.004;73.342;2022-12-20T05:07:06;100316.16;;;0.30;57.75
69737;BME280;64476;55.004;73.342;2022-12-20T05:10:10;100310.25;;;0.28;58.16
69737;BME280;64476;55.004;73.342;2022-12-20T05:13:49;100315.91;;;0.17;59.29
69737;BME280;64476;55.004;73.342;2022-12-20T05:16:54;100321.13;;;0.15;59.52
69737;BME280;64476;55.004;73.342;2022-12-20T05:19:55;100334.47;;;0.22;59.67
69737;BME280;64476;55.004;73.342;2022-12-20T05:22:59;100327.41;;;0.27;59.78
69737;BME280;64476;55.004;73.342;2022-12-20T05:26:22;100340.25;;;0.27;60.18
69737;BME280;64476;55.004;73.342;2022-12-20T05:29:25;100339.06;;;0.34;59.70
69737;BME280;64476;55.004;73.342;2022-12-20T05:32:27;100343.66;;;0.28;60.26
69737;BME280;64476;55.004;73.342;2022-12-20T05:35:34;100342.28;;;0.20;61.68
69737;BME280;64476;55.004;73.342;2022-12-20T05:38:42;100340.38;;;0.24;60.87
69737;BME280;64476;55.004;73.342;2022-12-20T05:41:49;100343.19;;;0.19;61.87
69737;BME280;64476;55.004;73.342;2022-12-20T05:44:54;100332.00;;;0.20;61.08
69737;BME280;64476;55.004;73.342;2022-12-20T05:47:56;100351.72;;;0.20;61.93
69737;BME280;64476;55.004;73.342;2022-12-20T05:51:04;100336.00;;;0.09;62.46
69737;BME280;64476;55.004;73.342;2022-12-20T05:54:07;100340.44;;;0.05;62.61
69737;BME280;64476;55.004;73.342;2022-12-20T05:57:18;100330.78;;;0.10;62.53
69737;BME280;64476;55.004;73.342;2022-12-20T06:00:20;100346.19;;;0.10;62.48
69737;BME280;64476;55.004;73.342;2022-12-20T06:03:35;100342.56;;;0.14;62.97
69737;BME280;64476;55.004;73.342;2022-12-20T06:06:40;100351.50;;;0.24;62.60
69737;BME280;64476;55.004;73.342;2022-12-20T06:09:49;100342.03;;;0.25;62.45
69737;BME280;64476;55.004;73.342;2022-12-20T06:12:53;100347.44;;;0.38;61.72
69737;BME280;64476;55.004;73.342;2022-12-20T06:15:57;100341.38;;;0.39;62.30
69737;BME280;64476;55.004;73.342;2022-12-20T06:19:01;100345.19;;;0.49;61.46
69737;BME280;64476;55.004;73.342;2022-12-20T06:22:10;100344.03;;;0.55;61.18
69737;BME280;64476;55.004;73.342;2022-12-20T06:25:23;100346.16;;;0.64;61.36
69737;BME280;64476;55.004;73.342;2022-12-20T06:28:26;100341.75;;;0.66;61.69
69737;BME280;64476;55.004;73.342;2022-12-20T06:31:28;100352.13;;;0.64;61.70
69737;BME280;64476;55.004;73.342;2022-12-20T06:34:41;100341.31;;;0.58;61.27
69737;BME280;64476;55.004;73.342;2022-12-20T06:38:18;100348.03;;;0.43;62.30
69737;BME280;64476;55.004;73.342;2022-12-20T06:41:24;100344.50;;;0.45;62.48
69737;BME280;64476;55.004;73.342;2022-12-20T06:44:27;100339.06;;;0.52;62.28
69737;BME280;64476;55.004;73.342;2022-12-20T06:47:29;100339.81;;;0.54;62.16
69737;BME280;64476;55.004;73.342;2022-12-20T06:50:30;100352.28;;;0.61;62.39
69737;BME280;64476;55.004;73.342;2022-12-20T06:53:34;100337.25;;;0.54;62.50
69737;BME280;64476;55.004;73.342;2022-12-20T06:56:36;100339.81;;;0.54;62.18
69737;BME280;64476;55.004;73.342;2022-12-20T06:59:42;100345.84;;;0.53;62.72
69737;BME280;64476;55.004;73.342;2022-12-20T07:02:46;100338.53;;;0.45;63.14
69737;BME280;64476;55.004;73.342;2022-12-20T07:05:51;100338.69;;;0.59;62.74
69737;BME280;64476;55.004;73.342;2022-12-20T07:09:03;100331.28;;;0.53;62.50
69737;BME280;64476;55.004;73.342;2022-12-20T07:12:07;100337.91;;;0.40;62.79
69737;BME280;64476;55.004;73.342;2022-12-20T07:15:09;100346.66;;;0.36;63.27
69737;BME280;64476;55.004;73.342;2022-12-20T07:18:10;100339.22;;;0.48;62.36
69737;BME280;64476;55.004;73.342;2022-12-20T07:21:12;100344.72;;;0.58;62.98
69737;BME280;64476;55.004;73.342;2022-12-20T07:24:21;100345.00;;;0.69;61.88
69737;BME280;64476;55.004;73.342;2022-12-20T07:27:23;100353.19;;;0.60;62.65
69737;BME280;64476;55.004;73.342;2022-12-20T07:30:24;100348.72;;;0.46;62.82
69737;BME280;64476;55.004;73.342;2022-12-20T07:33:31;100341.47;;;0.55;62.53
69737;BME280;64476;55.004;73.342;2022-12-20T07:36:38;100341.53;;;0.53;62.72
69737;BME280;64476;55.004;73.342;2022-12-20T07:39:40;100341.06;;;0.62;62.60
69737;BME280;64476;55.004;73.342;2022-12-20T07:42:42;100345.34;;;0.63;62.31
69737;BME280;64476;55.004;73.342;2022-12-20T07:45:46;100343.50;;;0.65;62.46
69737;BME280;64476;55.004;73.342;2022-12-20T07:48:52;100347.06;;;0.63;62.55
69737;BME280;64476;55.004;73.342;2022-12-20T07:51:56;100339.72;;;0.55;62.71
69737;BME280;64476;55.004;73.342;2022-12-20T07:55:04;100339.66;;;0.57;62.71
69737;BME280;64476;55.004;73.342;2022-12-20T07:58:08;100331.34;;;0.69;62.01
69737;BME280;64476;55.004;73.342;2022-12-20T08:01:13;100339.41;;;0.61;62.51
69737;BME280;64476;55.004;73.342;2022-12-20T08:04:47;100336.19;;;0.58;62.64
69737;BME280;64476;55.004;73.342;2022-12-20T08:07:52;100331.41;;;0.67;61.72
69737;BME280;64476;55.004;73.342;2022-12-20T08:10:54;100334.81;;;0.68;62.57
69737;BME280;64476;55.004;73.342;2022-12-20T08:14:01;100338.44;;;0.64;62.42
69737;BME280;64476;55.004;73.342;2022-12-20T08:17:06;100329.78;;;0.66;62.11
69737;BME280;64476;55.004;73.342;2022-12-20T08:20:08;100329.16;;;0.61;61.99
69737;BME280;64476;55.004;73.342;2022-12-20T08:23:14;100325.28;;;0.70;62.42
69737;BME280;64476;55.004;73.342;2022-12-20T08:26:16;100330.06;;;0.78;61.55
69737;BME280;64476;55.004;73.342;2022-12-20T08:29:21;100331.03;;;0.92;61.75
69737;BME280;64476;55.004;73.342;2022-12-20T08:32:28;100323.22;;;0.94;61.56
69737;BME280;64476;55.004;73.342;2022-12-20T08:35:29;100320.66;;;0.94;61.06
69737;BME280;64476;55.004;73.342;2022-12-20T08:38:31;100321.72;;;0.90;61.90
69737;BME280;64476;55.004;73.342;2022-12-20T08:41:33;100331.16;;;0.89;61.42
69737;BME280;64476;55.004;73.342;2022-12-20T08:44:34;100339.78;;;0.88;61.77
69737;BME280;64476;55.004;73.342;2022-12-20T08:47:36;100329.72;;;0.84;61.75
69737;BME280;64476;55.004;73.342;2022-12-20T08:50:47;100330.94;;;0.94;61.06
69737;BME280;64476;55.004;73.342;2022-12-20T08:53:56;100320.88;;;0.89;61.69
69737;BME280;64476;55.004;73.342;2022-12-20T08:57:06;100317.16;;;0.95;62.06
69737;BME280;64476;55.004;73.342;2022-12-20T09:00:12;100324.56;;;1.01;61.26
69737;BME280;64476;55.004;73.342;2022-12-20T09:03:14;100335.25;;;0.93;62.00
69737;BME280;64476;55.004;73.342;2022-12-20T09:06:16;100322.84;;;0.84;61.68
69737;BME280;64476;55.004;73.342;2022-12-20T09:09:18;100332.44;;;0.81;62.44
69737;BME280;64476;55.004;73.342;2022-12-20T09:12:55;100334.72;;;0.87;61.58
69737;BME280;64476;55.004;73.342;2022-12-20T09:15:58;100326.63;;;0.94;61.63
69737;BME280;64476;55.004;73.342;2022-12-20T09:19:00;100339.56;;;0.93;62.13
69737;BME280;64476;55.004;73.342;2022-12-20T09:22:06;100333.50;;;0.94;61.57
69737;BME280;64476;55.004;73.342;2022-12-20T09:25:08;100328.84;;;0.85;62.17
69737;BME280;64476;55.004;73.342;2022-12-20T09:28:10;100329.72;;;0.84;62.02
69737;BME280;64476;55.004;73.342;2022-12-20T09:31:19;100330.94;;;0.77;62.90
69737;BME280;64476;55.004;73.342;2022-12-20T09:34:20;100335.78;;;0.83;62.06
69737;BME280;64476;55.004;73.342;2022-12-20T09:40:56;100332.38;;;0.82;62.38
69737;BME280;64476;55.004;73.342;2022-12-20T09:47:27;100321.28;;;0.82;62.35
69737;BME280;64476;55.004;73.342;2022-12-20T09:53:58;100334.19;;;0.98;61.81
69737;BME280;64476;55.004;73.342;2022-12-20T09:57:18;100329.84;;;0.98;61.93
69737;BME280;64476;55.004;73.342;2022-12-20T10:00:50;100328.28;;;0.95;61.79
69737;BME280;64476;55.004;73.342;2022-12-20T10:15:00;100329.59;;;0.69;61.83
69737;BME280;64476;55.004;73.342;2022-12-20T10:18:10;100332.78;;;0.75;62.28
69737;BME280;64476;55.004;73.342;2022-12-20T10:24:30;100327.03;;;0.69;61.76
69737;BME280;64476;55.004;73.342;2022-12-20T10:27:32;100324.53;;;0.68;61.81
69737;BME280;64476;55.004;73.342;2022-12-20T10:30:37;100318.13;;;0.59;62.68
69737;BME280;64476;55.004;73.342;2022-12-20T10:33:39;100327.25;;;0.65;62.73
69737;BME280;64476;55.004;73.342;2022-12-20T10:36:41;100327.09;;;0.68;62.20
69737;BME280;64476;55.004;73.342;2022-12-20T10:39:43;100336.94;;;0.60;62.71
69737;BME280;64476;55.004;73.342;2022-12-20T10:42:44;100336.47;;;0.69;62.40
69737;BME280;64476;55.004;73.342;2022-12-20T10:46:05;100343.44;;;0.67;62.35
69737;BME280;64476;55.004;73.342;2022-12-20T10:56:36;100335.34;;;0.75;61.86
69737;BME280;64476;55.004;73.342;2022-12-20T10:59:37;100333.84;;;0.70;62.26
69737;BME280;64476;55.004;73.342;2022-12-20T11:03:03;100337.38;;;0.68;62.02
69737;BME280;64476;55.004;73.342;2022-12-20T11:06:11;100341.59;;;0.69;62.02
69737;BME280;64476;55.004;73.342;2022-12-20T11:12:32;100341.38;;;0.73;62.51
69737;BME280;64476;55.004;73.342;2022-12-20T11:16:37;100331.09;;;0.73;62.24
69737;BME280;64476;55.004;73.342;2022-12-20T11:19:50;100328.75;;;0.69;61.95
69737;BME280;64476;55.004;73.342;2022-12-20T11:23:06;100336.19;;;0.75;62.29
69737;BME280;64476;55.004;73.342;2022-12-20T11:33:02;100349.09;;;0.56;62.71
69737;BME280;64476;55.004;73.342;2022-12-20T11:56:39;100344.56;;;0.61;62.30
69737;BME280;64476;55.004;73.342;2022-12-20T11:59:53;100348.88;;;0.61;61.90
69737;BME280;64476;55.004;73.342;2022-12-20T12:03:33;100350.22;;;0.51;63.12
69737;BME280;64476;55.004;73.342;2022-12-20T12:06:36;100351.28;;;0.46;62.83
69737;BME280;64476;55.004;73.342;2022-12-20T12:10:21;100344.19;;;0.52;62.82
69737;BME280;64476;55.004;73.342;2022-12-20T12:13:25;100347.44;;;0.55;62.77
69737;BME280;64476;55.004;73.342;2022-12-20T12:16:38;100342.47;;;0.52;63.01
69737;BME280;64476;55.004;73.342;2022-12-20T12:19:45;100347.50;;;0.54;63.26
69737;BME280;64476;55.004;73.342;2022-12-20T12:23:02;100347.66;;;0.51;63.10
69737;BME280;64476;55.004;73.342;2022-12-20T12:29:23;100341.31;;;0.58;63.10
69737;BME280;64476;55.004;73.342;2022-12-20T12:45:33;100338.06;;;0.71;62.92
69737;BME280;64476;55.004;73.342;2022-12-20T12:48:42;100336.69;;;0.82;62.42
69737;BME280;64476;55.004;73.342;2022-12-20T12:51:51;100326.03;;;0.89;62.43
69737;BME280;64476;55.004;73.342;2022-12-20T12:55:29;100338.06;;;0.89;62.72
69737;BME280;64476;55.004;73.342;2022-12-20T12:58:31;100345.53;;;0.93;62.32
69737;BME280;64476;55.004;73.342;2022-12-20T13:08:20;100336.31;;;0.89;61.90
69737;BME280;64476;55.004;73.342;2022-12-20T13:11:46;100337.44;;;0.84;62.47
69737;BME280;64476;55.004;73.342;2022-12-20T13:14:48;100334.88;;;0.84;62.25
69737;BME280;64476;55.004;73.342;2022-12-20T13:17:56;100335.88;;;0.81;61.79
69737;BME280;64476;55.004;73.342;2022-12-20T13:21:27;100338.22;;;0.68;62.59
69737;BME280;64476;55.004;73.342;2022-12-20T13:44:35;100341.00;;;0.29;63.65
69737;BME280;64476;55.004;73.342;2022-12-20T13:47:44;100346.75;;;0.34;62.89
69737;BME280;64476;55.004;73.342;2022-12-20T13:50:55;100340.03;;;0.32;63.06
69737;BME280;64476;55.004;73.342;2022-12-20T13:54:03;100341.00;;;0.29;63.40
69737;BME280;64476;55.004;73.342;2022-12-20T13:57:06;100335.94;;;0.28;63.39
69737;BME280;64476;55.004;73.342;2022-12-20T14:04:01;100333.78;;;0.37;62.59
69737;BME280;64476;55.004;73.342;2022-12-20T14:07:07;100332.41;;;0.30;62.93
69737;BME280;64476;55.004;73.342;2022-12-20T14:10:16;100331.56;;;0.30;63.18
69737;BME280;64476;55.004;73.342;2022-12-20T14:13:28;100332.84;;;0.38;63.07
69737;BME280;64476;55.004;73.342;2022-12-20T14:23:21;100326.22;;;0.34;62.89
69737;BME280;64476;55.004;73.342;2022-12-20T14:26:25;100319.47;;;0.32;62.91
69737;BME280;64476;55.004;73.342;2022-12-20T14:29:38;100321.28;;;0.12;63.97
69737;BME280;64476;55.004;73.342;2022-12-20T14:32:40;100320.31;;;0.15;63.44
69737;BME280;64476;55.004;73.342;2022-12-20T14:35:45;100323.69;;;0.15;63.14
69737;BME280;64476;55.004;73.342;2022-12-20T14:38:52;100321.28;;;0.12;63.21
69737;BME280;64476;55.004;73.342;2022-12-20T14:42:12;100325.63;;;0.10;63.77
69737;BME280;64476;55.004;73.342;2022-12-20T14:48:27;100326.84;;;0.03;63.58
69737;BME280;64476;55.004;73.342;2022-12-20T14:51:39;100328.44;;;0.06;63.59
69737;BME280;64476;55.004;73.342;2022-12-20T14:54:54;100329.25;;;0.06;64.01
69737;BME280;64476;55.004;73.342;2022-12-20T14:57:58;100323.69;;;0.15;63.13
69737;BME280;64476;55.004;73.342;2022-12-20T15:01:01;100329.16;;;0.27;63.02
69737;BME280;64476;55.004;73.342;2022-12-20T15:04:17;100330.44;;;0.35;62.73
69737;BME280;64476;55.004;73.342;2022-12-20T15:07:28;100333.59;;;0.40;62.58
69737;BME280;64476;55.004;73.342;2022-12-20T15:13:47;100326.50;;;0.45;62.35
69737;BME280;64476;55.004;73.342;2022-12-20T15:16:52;100329.75;;;0.49;62.18
69737;BME280;64476;55.004;73.342;2022-12-20T15:19:54;100332.94;;;0.54;62.23
69737;BME280;64476;55.004;73.342;2022-12-20T15:22:55;100343.75;;;0.61;62.38
69737;BME280;64476;55.004;73.342;2022-12-20T15:26:00;100347.66;;;0.68;62.03
69737;BME280;64476;55.004;73.342;2022-12-20T15:29:01;100333.75;;;0.72;62.16
69737;BME280;64476;55.004;73.342;2022-12-20T15:32:06;100342.00;;;0.79;61.74
69737;BME280;64476;55.004;73.342;2022-12-20T15:35:20;100344.41;;;0.82;61.13
69737;BME280;64476;55.004;73.342;2022-12-20T15:38:22;100361.41;;;0.84;60.90
69737;BME280;64476;55.004;73.342;2022-12-20T15:41:28;100364.88;;;0.66;59.48
69737;BME280;64476;55.004;73.342;2022-12-20T15:44:30;100366.31;;;0.54;59.65
69737;BME280;64476;55.004;73.342;2022-12-20T15:47:32;100375.91;;;0.51;58.37
69737;BME280;64476;55.004;73.342;2022-12-20T15:50:33;100373.13;;;0.38;57.29
69737;BME280;64476;55.004;73.342;2022-12-20T15:53:35;100380.06;;;0.36;58.32
69737;BME280;64476;55.004;73.342;2022-12-20T15:56:36;100376.81;;;0.32;57.87
69737;BME280;64476;55.004;73.342;2022-12-20T15:59:43;100378.69;;;0.29;58.72
69737;BME280;64476;55.004;73.342;2022-12-20T16:02:44;100385.81;;;0.05;56.91
69737;BME280;64476;55.004;73.342;2022-12-20T16:06:21;100384.66;;;-0.07;57.24
69737;BME280;64476;55.004;73.342;2022-12-20T16:09:23;100380.34;;;-0.07;57.14
69737;BME280;64476;55.004;73.342;2022-12-20T16:12:27;100383.09;;;-0.11;55.83
69737;BME280;64476;55.004;73.342;2022-12-20T16:15:30;100380.00;;;-0.18;55.68
69737;BME280;64476;55.004;73.342;2022-12-20T16:18:31;100381.81;;;-0.20;55.44
69737;BME280;64476;55.004;73.342;2022-12-20T16:21:33;100382.50;;;-0.16;55.62
69737;BME280;64476;55.004;73.342;2022-12-20T16:24:45;100385.97;;;-0.17;54.95
69737;BME280;64476;55.004;73.342;2022-12-20T16:27:47;100380.63;;;-0.13;54.75
69737;BME280;64476;55.004;73.342;2022-12-20T16:30:49;100389.16;;;-0.12;54.43
69737;BME280;64476;55.004;73.342;2022-12-20T16:34:02;100393.59;;;-0.16;53.37
69737;BME280;64476;55.004;73.342;2022-12-20T16:37:16;100391.16;;;-0.19;53.10
69737;BME280;64476;55.004;73.342;2022-12-20T16:40:18;100391.31;;;-0.22;53.63
69737;BME280;64476;55.004;73.342;2022-12-20T16:43:19;100389.94;;;-0.29;52.97
69737;BME280;64476;55.004;73.342;2022-12-20T16:46:21;100382.28;;;-0.31;53.43
69737;BME280;64476;55.004;73.342;2022-12-20T16:49:33;100393.69;;;-0.36;52.49
69737;BME280;64476;55.004;73.342;2022-12-20T16:52:35;100402.03;;;-0.52;51.99
69737;BME280;64476;55.004;73.342;2022-12-20T16:55:37;100400.66;;;-0.59;52.72
69737;BME280;64476;55.004;73.342;2022-12-20T16:58:38;100400.47;;;-0.75;50.75
69737;BME280;64476;55.004;73.342;2022-12-20T17:01:43;100393.19;;;-0.84;50.67
69737;BME280;64476;55.004;73.342;2022-12-20T17:04:45;100400.81;;;-0.82;51.63
69737;BME280;64476;55.004;73.342;2022-12-20T17:07:46;100394.97;;;-0.86;51.63
69737;BME280;64476;55.004;73.342;2022-12-20T17:11:01;100393.56;;;-0.93;50.16
69737;BME280;64476;55.004;73.342;2022-12-20T17:14:13;100393.25;;;-1.06;49.44
69737;BME280;64476;55.004;73.342;2022-12-20T17:17:14;100392.75;;;-1.14;50.56
69737;BME280;64476;55.004;73.342;2022-12-20T17:20:16;100395.56;;;-1.20;49.86
69737;BME280;64476;55.004;73.342;2022-12-20T17:23:28;100404.31;;;-1.26;50.01
69737;BME280;64476;55.004;73.342;2022-12-20T17:26:36;100402.84;;;-1.31;50.84
69737;BME280;64476;55.004;73.342;2022-12-20T17:29:38;100403.09;;;-1.37;49.73
69737;BME280;64476;55.004;73.342;2022-12-20T17:32:39;100399.22;;;-1.48;49.75
69737;BME280;64476;55.004;73.342;2022-12-20T17:35:41;100396.41;;;-1.62;49.12
69737;BME280;64476;55.004;73.342;2022-12-20T17:38:50;100407.59;;;-1.64;50.86
69737;BME280;64476;55.004;73.342;2022-12-20T17:41:52;100411.34;;;-1.73;50.01
69737;BME280;64476;55.004;73.342;2022-12-20T17:44:59;100411.78;;;-1.84;49.52
69737;BME280;64476;55.004;73.342;2022-12-20T17:48:00;100409.06;;;-1.81;50.31
69737;BME280;64476;55.004;73.342;2022-12-20T17:51:04;100404.97;;;-1.85;50.25
69737;BME280;64476;55.004;73.342;2022-12-20T17:54:45;100412.75;;;-1.88;49.96
69737;BME280;64476;55.004;73.342;2022-12-20T17:57:46;100409.34;;;-1.87;49.54
69737;BME280;64476;55.004;73.342;2022-12-20T18:00:58;100403.53;;;-1.92;49.11
69737;BME280;64476;55.004;73.342;2022-12-20T18:04:10;100404.81;;;-2.02;49.76
69737;BME280;64476;55.004;73.342;2022-12-20T18:07:11;100406.78;;;-2.10;49.83
69737;BME280;64476;55.004;73.342;2022-12-20T18:10:13;100401.97;;;-2.18;49.98
69737;BME280;64476;55.004;73.342;2022-12-20T18:13:14;100412.16;;;-2.16;50.51
69737;BME280;64476;55.004;73.342;2022-12-20T18:16:17;100412.16;;;-2.16;50.48
69737;BME280;64476;55.004;73.342;2022-12-20T18:19:25;100403.16;;;-2.27;48.97
69737;BME280;64476;55.004;73.342;2022-12-20T18:22:26;100404.16;;;-2.31;49.86
69737;BME280;64476;55.004;73.342;2022-12-20T18:25:28;100403.31;;;-2.31;49.61
69737;BME280;64476;55.004;73.342;2022-12-20T18:28:33;100399.25;;;-2.37;49.04
69737;BME280;64476;55.004;73.342;2022-12-20T18:31:34;100403.47;;;-2.36;50.29
69737;BME280;64476;55.004;73.342;2022-12-20T18:34:40;100397.59;;;-2.38;49.72
69737;BME280;64476;55.004;73.342;2022-12-20T18:37:41;100399.31;;;-2.38;49.45
69737;BME280;64476;55.004;73.342;2022-12-20T18:40:53;100393.38;;;-2.39;49.82
69737;BME280;64476;55.004;73.342;2022-12-20T18:43:57;100397.09;;;-2.48;49.45
69737;BME280;64476;55.004;73.342;2022-12-20T18:47:05;100401.19;;;-2.44;49.97
69737;BME280;64476;55.004;73.342;2022-12-20T18:53:51;100392.41;;;-2.36;49.37